Time;durP1;ratioP1;P1;durP2;ratioP2;P2;SDS_P1;SDS_P2;PMS_P1;PMS_P2;Temp;Humidity;BMP_temperature;BMP_pressure;BME280_temperature;BME280_humidity;BME280_pressure;Samples;Min_cycle;Max_cycle;Signal;HPM_P1;HPM_P2
2021/05/14 00:00:26;;;;;;;3.15;0.93;;;;;;;20.72;32.81;100711.94;4170753;28;20053;-44
2021/05/14 00:02:26;;;;;;;2.55;0.98;;;;;;;20.66;32.91;100716.72;4174713;28;20395;-44
2021/05/14 00:04:26;;;;;;;1.48;0.90;;;;;;;20.61;32.90;100711.22;4175254;28;20037;-46
2021/05/14 00:06:27;;;;;;;2.28;1.02;;;;;;;20.59;32.81;100714.31;4171556;28;20037;-46
2021/05/14 00:08:27;;;;;;;8.02;0.80;;;;;;;20.64;32.90;100708.69;4174004;28;20060;-47
2021/05/14 00:10:28;;;;;;;2.15;1.00;;;;;;;20.63;32.75;100707.00;4174575;28;20041;-47
2021/05/14 00:12:28;;;;;;;2.22;0.85;;;;;;;20.55;32.72;100696.50;4171659;28;20040;-45
2021/05/14 00:14:29;;;;;;;5.05;1.15;;;;;;;20.58;32.86;100709.84;4175262;28;20664;-47
2021/05/14 00:16:29;;;;;;;1.85;0.90;;;;;;;20.49;32.84;100701.28;4174820;28;20037;-49
2021/05/14 00:18:30;;;;;;;1.17;0.63;;;;;;;20.50;33.04;100713.25;4171716;28;20033;-46
2021/05/14 00:20:30;;;;;;;3.05;0.85;;;;;;;20.49;33.04;100715.19;4174581;28;20037;-47
2021/05/14 00:22:31;;;;;;;1.92;0.90;;;;;;;20.48;33.15;100709.91;4170558;28;20033;-46
2021/05/14 00:24:32;;;;;;;1.83;0.65;;;;;;;20.24;33.00;100691.25;4172769;28;20115;-50
2021/05/14 00:26:32;;;;;;;1.30;0.80;;;;;;;20.43;33.28;100723.88;4174815;28;20494;-46
2021/05/14 00:28:33;;;;;;;1.73;0.82;;;;;;;20.45;33.08;100716.06;4171552;28;20045;-45
2021/05/14 00:30:33;;;;;;;4.20;0.80;;;;;;;20.26;33.26;100719.56;4174336;28;20116;-50
2021/05/14 00:32:37;;;;;;;2.55;1.30;;;;;;;20.33;33.15;100724.81;4174395;28;20042;-49
2021/05/14 00:34:38;;;;;;;3.33;0.88;;;;;;;20.33;33.15;100715.63;4174068;28;20044;-45
2021/05/14 00:36:38;;;;;;;3.45;0.95;;;;;;;20.11;33.50;100694.69;4174592;28;20045;-45
2021/05/14 00:38:38;;;;;;;2.80;0.90;;;;;;;20.36;33.47;100717.81;4169435;28;20415;-51
2021/05/14 00:40:39;;;;;;;1.75;0.80;;;;;;;20.11;33.30;100706.66;4170675;28;20037;-47
2021/05/14 00:42:40;;;;;;;1.08;0.95;;;;;;;20.25;33.38;100723.50;4171437;28;20043;-45
2021/05/14 00:44:45;;;;;;;5.15;0.95;;;;;;;20.25;33.36;100726.28;4175727;28;20086;-44
2021/05/14 00:46:46;;;;;;;1.67;0.98;;;;;;;20.06;33.78;100723.34;4173966;28;20075;-47
2021/05/14 00:48:46;;;;;;;2.65;1.05;;;;;;;20.20;33.31;100719.94;4173392;28;20033;-48
2021/05/14 00:50:46;;;;;;;1.52;1.00;;;;;;;20.11;33.44;100725.25;4174778;28;20033;-48
2021/05/14 00:52:47;;;;;;;3.53;1.00;;;;;;;20.10;33.58;100721.66;4173932;28;20036;-50
2021/05/14 00:54:49;;;;;;;1.15;0.77;;;;;;;20.09;33.61;100727.50;4174217;28;20091;-44
2021/05/14 00:56:51;;;;;;;2.00;1.10;;;;;;;20.07;33.50;100727.81;4169861;28;20029;-50
2021/05/14 00:58:51;;;;;;;3.42;1.13;;;;;;;20.04;33.52;100727.56;4175306;28;20056;-47
2021/05/14 01:00:51;;;;;;;0.80;0.80;;;;;;;20.07;33.49;100724.22;4173747;28;20055;-47
2021/05/14 01:02:53;;;;;;;1.13;0.95;;;;;;;20.05;33.52;100724.50;4174023;28;20044;-45
2021/05/14 01:04:54;;;;;;;0.90;0.63;;;;;;;19.93;33.50;100710.97;4156193;28;20045;-46
2021/05/14 01:06:54;;;;;;;2.50;0.85;;;;;;;20.02;33.38;100722.28;4171958;28;20033;-45
2021/05/14 01:08:58;;;;;;;1.77;1.02;;;;;;;19.99;33.62;100724.81;4167596;28;20065;-46
2021/05/14 01:10:59;;;;;;;2.58;0.90;;;;;;;19.93;33.69;100726.81;4173661;28;20059;-45
2021/05/14 01:12:59;;;;;;;1.20;0.73;;;;;;;19.89;33.72;100723.75;4172465;28;20087;-46
2021/05/14 01:15:00;;;;;;;3.95;1.20;;;;;;;19.94;33.69;100726.53;4170067;28;20499;-47
2021/05/14 01:17:01;;;;;;;1.95;0.70;;;;;;;19.90;33.85;100727.41;4172744;28;20037;-48
2021/05/14 01:19:03;;;;;;;3.53;0.77;;;;;;;19.96;33.71;100726.25;4175198;28;20039;-50
2021/05/14 01:21:03;;;;;;;1.08;0.70;;;;;;;19.86;33.81;100721.56;4176048;28;20035;-51
2021/05/14 01:23:04;;;;;;;1.15;0.75;;;;;;;19.88;33.60;100724.91;4174469;28;20036;-48
2021/05/14 01:25:05;;;;;;;4.55;1.00;;;;;;;19.91;33.53;100729.03;4176931;28;20500;-50
2021/05/14 01:27:05;;;;;;;1.15;0.70;;;;;;;19.79;33.83;100723.81;4174754;28;20033;-50
2021/05/14 01:29:09;;;;;;;1.70;0.90;;;;;;;19.80;33.71;100727.41;4175351;28;20040;-50
2021/05/14 01:31:10;;;;;;;0.98;0.68;;;;;;;19.79;33.87;100732.16;4175600;28;20257;-48
2021/05/14 01:33:10;;;;;;;1.25;0.60;;;;;;;19.71;33.80;100718.88;4178082;28;20368;-50
2021/05/14 01:35:11;;;;;;;2.38;0.60;;;;;;;19.67;33.76;100715.84;4173212;28;20036;-48
2021/05/14 01:37:11;;;;;;;1.52;0.73;;;;;;;19.70;33.92;100715.25;4176551;28;20048;-51
2021/05/14 01:39:16;;;;;;;1.05;0.60;;;;;;;19.76;34.07;100729.97;4177070;28;20032;-52
2021/05/14 01:41:17;;;;;;;1.77;0.60;;;;;;;19.68;34.12;100734.19;4175307;28;20043;-47
2021/05/14 01:43:17;;;;;;;0.82;0.50;;;;;;;19.64;34.18;100730.31;4172874;28;20713;-49
2021/05/14 01:45:18;;;;;;;1.33;0.77;;;;;;;19.55;34.22;100712.59;4176008;28;20642;-51
2021/05/14 01:47:18;;;;;;;2.13;0.60;;;;;;;19.63;34.02;100722.25;4175232;28;20399;-47
2021/05/14 01:49:19;;;;;;;1.67;0.70;;;;;;;19.64;34.10;100729.47;4176833;28;20075;-45
2021/05/14 01:51:21;;;;;;;1.08;0.60;;;;;;;19.66;34.08;100730.00;4174388;28;20049;-48
2021/05/14 01:53:22;;;;;;;1.20;0.85;;;;;;;19.67;33.98;100734.47;4172606;28;20025;-49
2021/05/14 01:55:22;;;;;;;1.48;0.75;;;;;;;19.69;34.10;100735.00;4176179;28;20380;-48
2021/05/14 01:57:22;;;;;;;1.13;0.80;;;;;;;19.67;33.89;100728.91;4176684;28;20037;-47
2021/05/14 01:59:23;;;;;;;2.13;0.82;;;;;;;19.63;33.99;100730.59;4176247;28;20029;-47
2021/05/14 02:01:25;;;;;;;1.15;0.80;;;;;;;19.55;34.25;100720.91;4175386;28;20033;-48
2021/05/14 02:03:25;;;;;;;1.05;0.70;;;;;;;19.59;34.08;100711.72;4175814;28;20478;-48
2021/05/14 02:05:26;;;;;;;2.42;0.80;;;;;;;19.62;33.97;100726.13;4174916;28;20055;-44
2021/05/14 02:07:27;;;;;;;1.00;0.82;;;;;;;19.55;34.19;100720.91;4176250;28;20364;-48
2021/05/14 02:09:27;;;;;;;1.20;0.60;;;;;;;19.56;34.21;100723.41;4178338;28;20044;-47
2021/05/14 02:11:28;;;;;;;1.50;0.82;;;;;;;19.47;34.35;100725.13;4173725;28;20029;-46
2021/05/14 02:13:28;;;;;;;1.92;0.65;;;;;;;19.50;34.09;100719.00;4175678;28;20033;-48
2021/05/14 02:15:29;;;;;;;1.58;0.60;;;;;;;19.51;34.06;100723.44;4173935;28;20123;-49
2021/05/14 02:17:29;;;;;;;0.60;0.50;;;;;;;19.47;34.23;100729.84;4157983;28;20041;-45
2021/05/14 02:19:29;;;;;;;1.33;0.80;;;;;;;19.49;34.28;100731.22;4173948;28;20041;-44
2021/05/14 02:21:30;;;;;;;1.33;0.60;;;;;;;19.50;34.22;100721.78;4175476;28;20033;-46
2021/05/14 02:23:30;;;;;;;1.38;0.73;;;;;;;19.42;34.41;100728.75;4174365;28;20033;-46
2021/05/14 02:25:31;;;;;;;0.77;0.60;;;;;;;19.39;34.33;100718.22;4177380;28;20033;-48
2021/05/14 02:27:33;;;;;;;1.33;0.70;;;;;;;19.51;34.38;100731.78;4171110;28;20051;-51
2021/05/14 02:29:34;;;;;;;3.00;0.55;;;;;;;19.38;34.19;100721.28;4173672;28;20672;-45
2021/05/14 02:31:34;;;;;;;2.05;0.70;;;;;;;19.46;34.15;100730.97;4172297;28;20028;-46
2021/05/14 02:33:35;;;;;;;0.77;0.68;;;;;;;19.43;34.33;100724.03;4175092;28;20100;-45
2021/05/14 02:35:36;;;;;;;1.30;0.60;;;;;;;19.43;34.24;100715.69;4175831;28;20044;-44
2021/05/14 02:37:36;;;;;;;1.45;0.68;;;;;;;19.44;34.20;100722.91;4171855;28;20434;-44
2021/05/14 02:39:37;;;;;;;0.77;0.68;;;;;;;19.40;34.33;100721.81;4171666;28;20032;-47
2021/05/14 02:41:37;;;;;;;1.88;0.82;;;;;;;19.38;34.32;100724.88;4174502;28;20789;-48
2021/05/14 02:43:39;;;;;;;1.55;0.55;;;;;;;19.48;34.01;100723.16;4174141;28;20111;-47
2021/05/14 02:45:40;;;;;;;1.20;0.70;;;;;;;19.41;34.48;100726.28;4175490;28;20074;-47
2021/05/14 02:47:41;;;;;;;2.85;0.63;;;;;;;19.33;34.34;100724.09;4171400;28;20508;-50
2021/05/14 02:49:42;;;;;;;1.73;0.80;;;;;;;19.26;34.54;100721.63;4161977;28;20044;-44
2021/05/14 02:51:42;;;;;;;1.35;0.88;;;;;;;19.31;34.42;100716.06;4175547;28;20025;-46
2021/05/14 02:53:42;;;;;;;0.85;0.52;;;;;;;19.25;34.76;100722.75;4175595;28;20595;-48
2021/05/14 02:55:43;;;;;;;1.92;0.60;;;;;;;19.32;34.65;100726.03;4173812;28;20064;-44
2021/05/14 02:57:44;;;;;;;1.65;0.73;;;;;;;19.27;34.53;100717.72;4174138;28;20506;-48
2021/05/14 02:59:44;;;;;;;1.38;0.80;;;;;;;19.26;34.69;100718.03;4176692;28;20055;-45
2021/05/14 03:01:44;;;;;;;1.17;0.75;;;;;;;19.34;34.65;100718.25;4174537;28;20060;-44
2021/05/14 03:03:45;;;;;;;1.13;0.70;;;;;;;19.27;34.80;100725.25;4175064;28;20049;-44
2021/05/14 03:05:45;;;;;;;1.83;0.80;;;;;;;19.22;34.84;100718.59;4175299;28;20044;-47
2021/05/14 03:07:46;;;;;;;1.55;0.90;;;;;;;19.31;34.25;100726.31;4174830;28;20039;-46
2021/05/14 03:09:46;;;;;;;1.05;0.70;;;;;;;19.20;34.79;100719.97;4176891;28;20076;-43
2021/05/14 03:11:46;;;;;;;2.75;0.77;;;;;;;19.22;34.71;100703.91;4174437;28;20040;-44
2021/05/14 03:13:47;;;;;;;1.80;0.80;;;;;;;19.32;34.27;100716.88;4174948;28;20376;-47
2021/05/14 03:15:47;;;;;;;0.73;0.63;;;;;;;19.37;34.20;100716.84;4175351;28;20777;-44
2021/05/14 03:17:48;;;;;;;1.70;0.70;;;;;;;19.28;34.46;100704.69;4175406;28;20479;-45
2021/05/14 03:19:51;;;;;;;2.40;0.60;;;;;;;19.31;34.34;100716.06;4176038;28;20065;-46
2021/05/14 03:21:53;;;;;;;1.48;0.90;;;;;;;19.32;34.34;100711.31;4174979;28;20124;-45
2021/05/14 03:23:54;;;;;;;1.48;0.95;;;;;;;19.27;34.34;100714.97;4156923;28;20037;-46
2021/05/14 03:25:55;;;;;;;1.02;0.65;;;;;;;19.28;34.24;100715.78;4167058;28;20033;-46
2021/05/14 03:27:55;;;;;;;1.13;0.60;;;;;;;19.26;34.15;100715.25;4173293;28;20407;-44
2021/05/14 03:29:56;;;;;;;2.42;1.00;;;;;;;19.21;34.14;100719.69;4173926;28;20040;-45
2021/05/14 03:31:56;;;;;;;0.88;0.65;;;;;;;19.19;34.54;100710.84;4174402;28;20040;-45
2021/05/14 03:33:57;;;;;;;1.58;0.75;;;;;;;19.18;34.37;100708.34;4172619;28;20053;-53
2021/05/14 03:35:57;;;;;;;1.50;1.00;;;;;;;19.18;34.06;100700.03;4174289;28;20037;-51
2021/05/14 03:37:58;;;;;;;1.42;1.02;;;;;;;19.08;33.93;100692.56;4174659;28;20041;-46
2021/05/14 03:40:03;;;;;;;2.92;1.00;;;;;;;19.13;34.17;100705.59;4171607;28;20040;-48
2021/05/14 03:42:12;;;;;;;0.73;0.60;;;;;;;19.10;34.15;100708.94;4174941;28;20037;-46
2021/05/14 03:44:13;;;;;;;0.93;0.60;;;;;;;19.10;34.27;100706.16;4172528;28;20057;-49
2021/05/14 03:46:13;;;;;;;1.70;0.77;;;;;;;19.08;34.18;100695.31;4172758;28;20044;-45
2021/05/14 03:48:20;;;;;;;1.38;1.27;;;;;;;19.04;34.02;100702.53;4172236;28;20040;-50
2021/05/14 03:50:20;;;;;;;1.13;0.90;;;;;;;19.11;34.24;100705.88;4174406;28;20467;-44
2021/05/14 03:52:21;;;;;;;1.00;1.00;;;;;;;18.97;33.98;100693.69;4173090;28;20036;-48
2021/05/14 03:54:22;;;;;;;1.10;1.00;;;;;;;19.04;34.07;100706.13;4173182;28;20036;-46
2021/05/14 03:56:22;;;;;;;1.33;1.10;;;;;;;19.01;33.87;100700.34;4174347;28;20057;-46
2021/05/14 03:58:23;;;;;;;2.75;0.90;;;;;;;18.99;34.14;100697.84;4172814;28;20175;-51
2021/05/14 04:00:24;;;;;;;1.95;0.90;;;;;;;19.03;34.07;100692.56;4164791;28;20029;-46
2021/05/14 04:02:24;;;;;;;1.50;0.95;;;;;;;18.97;34.13;100696.47;4173223;28;20033;-44
2021/05/14 04:04:25;;;;;;;0.85;0.85;;;;;;;18.97;34.13;100690.91;4173695;28;20039;-52
2021/05/14 04:06:27;;;;;;;2.33;0.95;;;;;;;18.99;34.26;100691.47;4172490;28;20036;-49
2021/05/14 04:08:27;;;;;;;1.30;1.20;;;;;;;18.94;34.25;100689.56;4172281;28;20144;-48
2021/05/14 04:14:41;;;;;;;0.90;0.63;;;;;;;18.95;34.34;100690.38;4169455;28;20059;-50
2021/05/14 04:16:41;;;;;;;1.45;0.70;;;;;;;18.96;34.46;100681.78;4172539;28;20471;-47
2021/05/14 04:18:42;;;;;;;1.52;0.98;;;;;;;18.97;34.29;100696.47;4175224;28;20610;-49
2021/05/14 04:20:45;;;;;;;2.33;0.80;;;;;;;18.96;33.97;100700.38;4174880;28;20034;-46
2021/05/14 04:22:45;;;;;;;0.82;0.70;;;;;;;18.84;34.50;100687.63;4172212;28;20179;-50
2021/05/14 04:24:46;;;;;;;1.55;1.00;;;;;;;18.89;34.23;100695.09;4169389;28;20475;-48
2021/05/14 04:26:47;;;;;;;1.98;1.20;;;;;;;18.79;34.25;100690.44;4172791;28;20036;-45
2021/05/14 04:28:48;;;;;;;1.40;1.00;;;;;;;18.79;34.11;100703.47;4169277;28;20575;-50
2021/05/14 04:30:48;;;;;;;1.13;0.80;;;;;;;18.88;33.88;100699.00;4173280;28;20029;-46
2021/05/14 04:32:49;;;;;;;2.67;0.90;;;;;;;18.88;33.75;100701.78;4169869;28;20233;-47
2021/05/14 04:34:50;;;;;;;3.10;1.27;;;;;;;18.83;34.19;100693.47;4175378;28;20076;-51
2021/05/14 04:36:50;;;;;;;1.88;1.15;;;;;;;18.85;33.96;100705.94;4173786;28;20033;-46
2021/05/14 04:38:51;;;;;;;1.25;1.05;;;;;;;18.68;34.16;100669.41;4173192;28;20041;-49
2021/05/14 04:40:51;;;;;;;2.00;1.35;;;;;;;18.82;33.78;100705.69;4172722;28;20056;-50
2021/05/14 04:42:52;;;;;;;2.22;1.02;;;;;;;18.82;34.14;100714.81;4172559;28;20040;-49
2021/05/14 04:44:52;;;;;;;1.42;0.90;;;;;;;18.83;34.09;100712.88;4170933;28;20033;-45
2021/05/14 04:46:53;;;;;;;1.15;0.80;;;;;;;18.77;33.92;100711.22;4174255;28;20100;-47
2021/05/14 04:48:54;;;;;;;3.83;0.90;;;;;;;18.79;33.83;100714.56;4173479;28;20079;-45
2021/05/14 04:50:54;;;;;;;2.03;0.80;;;;;;;18.76;34.37;100715.13;4164270;28;20033;-47
2021/05/14 04:53:02;;;;;;;1.98;0.88;;;;;;;18.68;33.84;100714.59;4172651;28;20029;-54
2021/05/14 04:55:03;;;;;;;1.27;1.10;;;;;;;18.70;33.83;100717.91;4176215;28;20025;-50
2021/05/14 04:57:04;;;;;;;2.08;0.90;;;;;;;18.70;33.81;100711.53;4175052;28;20037;-46
2021/05/14 04:59:04;;;;;;;1.95;1.15;;;;;;;18.66;34.01;100716.81;4173605;28;20037;-48
2021/05/14 05:01:06;;;;;;;1.75;1.10;;;;;;;18.58;34.20;100713.78;4178577;28;20037;-48
2021/05/14 05:03:06;;;;;;;1.25;1.15;;;;;;;18.60;33.96;100717.09;4171077;28;20061;-49
2021/05/14 05:05:07;;;;;;;1.30;1.20;;;;;;;18.56;34.12;100719.59;4175380;28;20541;-45
2021/05/14 05:07:08;;;;;;;2.03;1.05;;;;;;;18.54;34.12;100713.53;4177270;28;20049;-44
2021/05/14 05:09:08;;;;;;;1.90;0.85;;;;;;;18.56;33.79;100714.06;4175500;28;20032;-48
2021/05/14 05:11:09;;;;;;;0.95;0.82;;;;;;;18.56;34.00;100722.38;4176452;28;20042;-47
2021/05/14 05:13:09;;;;;;;0.82;0.70;;;;;;;18.49;34.04;100717.13;4177932;28;20419;-44
2021/05/14 05:15:10;;;;;;;0.70;0.70;;;;;;;18.53;33.88;100715.44;4174500;28;20033;-55
2021/05/14 05:17:11;;;;;;;1.67;0.90;;;;;;;18.57;34.15;100728.75;4178643;28;20116;-47
2021/05/14 05:19:11;;;;;;;1.60;1.08;;;;;;;18.55;33.88;100722.66;4177060;28;20037;-48
2021/05/14 05:21:12;;;;;;;1.00;0.80;;;;;;;18.52;34.03;100716.56;4169892;28;20518;-45
2021/05/14 05:23:12;;;;;;;1.00;0.75;;;;;;;18.51;34.08;100716.84;4177285;28;20033;-45
2021/05/14 05:25:13;;;;;;;1.02;0.90;;;;;;;18.51;34.23;100720.44;4172976;28;20041;-47
2021/05/14 05:27:14;;;;;;;1.17;0.73;;;;;;;18.58;34.11;100722.09;4176498;28;20064;-47
2021/05/14 05:29:14;;;;;;;1.77;1.00;;;;;;;18.51;34.20;100731.53;4176769;28;20752;-48
2021/05/14 05:31:15;;;;;;;2.03;1.10;;;;;;;18.52;33.97;100729.56;4176333;28;20040;-46
2021/05/14 05:33:15;;;;;;;1.05;0.95;;;;;;;18.49;34.07;100722.66;4168611;28;20033;-45
2021/05/14 05:35:16;;;;;;;1.17;1.00;;;;;;;18.41;34.21;100731.53;4176397;28;20033;-49
2021/05/14 05:37:16;;;;;;;0.70;0.70;;;;;;;18.38;34.50;100731.28;4177582;28;20045;-52
2021/05/14 05:39:16;;;;;;;2.88;0.85;;;;;;;18.43;34.12;100732.09;4177580;28;20067;-46
2021/05/14 05:41:17;;;;;;;0.63;0.63;;;;;;;18.45;34.03;100726.28;4175294;28;20055;-46
2021/05/14 05:43:18;;;;;;;2.33;0.90;;;;;;;18.38;34.43;100732.09;4177674;28;20032;-47
2021/05/14 05:45:19;;;;;;;0.77;0.77;;;;;;;18.44;34.29;100727.38;4174401;28;20048;-47
2021/05/14 05:47:19;;;;;;;2.85;1.10;;;;;;;18.37;34.45;100738.75;4175823;28;20041;-51
2021/05/14 05:49:21;;;;;;;1.10;0.85;;;;;;;18.39;34.34;100727.41;4177974;28;20037;-45
2021/05/14 05:51:21;;;;;;;0.60;0.60;;;;;;;18.42;34.17;100722.13;4176768;28;20029;-44
2021/05/14 05:53:22;;;;;;;0.82;0.82;;;;;;;18.49;34.83;100736.53;4168390;28;20032;-46
2021/05/14 05:55:22;;;;;;;1.02;0.80;;;;;;;18.46;34.32;100734.31;4177526;28;20510;-50
2021/05/14 05:57:23;;;;;;;1.98;1.23;;;;;;;18.44;34.44;100741.25;4174152;28;20391;-50
2021/05/14 05:59:23;;;;;;;1.60;0.90;;;;;;;18.39;34.22;100752.34;4177743;28;20025;-48
2021/05/14 06:01:24;;;;;;;1.65;0.90;;;;;;;18.31;34.68;100749.00;4177323;28;20037;-44
2021/05/14 06:03:24;;;;;;;1.48;1.33;;;;;;;18.31;34.61;100743.47;4176158;28;20048;-50
2021/05/14 06:05:25;;;;;;;1.20;1.10;;;;;;;18.37;34.36;100755.38;4175806;28;20064;-50
2021/05/14 06:07:25;;;;;;;1.73;1.35;;;;;;;18.32;34.37;100742.38;4172763;28;20029;-46
2021/05/14 06:09:26;;;;;;;1.25;1.15;;;;;;;18.23;34.65;100740.38;4176983;28;20060;-51
2021/05/14 06:11:27;;;;;;;1.48;0.80;;;;;;;18.22;34.42;100755.34;4175041;28;20180;-46
2021/05/14 06:13:27;;;;;;;1.48;1.05;;;;;;;18.16;35.11;100757.28;4174000;28;20430;-50
2021/05/14 06:15:28;;;;;;;1.50;0.90;;;;;;;18.20;34.55;100752.00;4176211;28;20060;-49
2021/05/14 06:17:29;;;;;;;1.17;0.98;;;;;;;18.25;34.91;100761.16;4176924;28;20047;-49
2021/05/14 06:19:32;;;;;;;1.58;0.80;;;;;;;18.14;35.17;100760.34;4176236;28;20041;-45
2021/05/14 06:21:33;;;;;;;1.88;1.30;;;;;;;18.23;34.55;100759.78;4177833;28;20033;-48
2021/05/14 06:23:33;;;;;;;1.25;1.10;;;;;;;18.20;34.64;100763.94;4174902;28;20521;-46
2021/05/14 06:25:34;;;;;;;1.55;1.00;;;;;;;18.23;34.72;100763.38;4175882;28;20037;-49
2021/05/14 06:27:35;;;;;;;2.08;1.30;;;;;;;18.25;34.26;100765.88;4174982;28;20037;-47
2021/05/14 06:29:35;;;;;;;0.82;0.80;;;;;;;18.16;34.69;100771.94;4173845;28;20041;-48
2021/05/14 06:31:36;;;;;;;2.72;1.67;;;;;;;18.20;34.55;100758.41;4173552;28;20059;-46
2021/05/14 06:33:36;;;;;;;2.20;1.10;;;;;;;18.27;34.69;100763.66;4174108;28;20025;-48
2021/05/14 06:35:39;;;;;;;1.50;1.25;;;;;;;18.15;34.88;100775.84;4175612;28;20364;-45
2021/05/14 06:37:39;;;;;;;1.60;1.40;;;;;;;18.14;35.56;100765.88;4169915;28;20059;-51
2021/05/14 06:39:40;;;;;;;4.00;0.90;;;;;;;18.09;35.27;100770.56;4173235;28;20037;-44
2021/05/14 06:41:40;;;;;;;3.25;1.42;;;;;;;18.10;35.60;100775.81;4174180;28;20040;-46
2021/05/14 06:43:40;;;;;;;1.15;0.98;;;;;;;18.11;35.34;100776.69;4174312;28;20044;-47
2021/05/14 06:45:41;;;;;;;1.75;1.02;;;;;;;18.12;35.62;100775.56;4171168;28;20483;-45
2021/05/14 06:47:41;;;;;;;1.85;1.20;;;;;;;18.14;35.15;100782.50;4175778;28;20036;-51
2021/05/14 06:49:41;;;;;;;1.23;0.98;;;;;;;18.20;35.55;100775.03;4173911;28;20037;-46
2021/05/14 06:51:42;;;;;;;1.92;1.17;;;;;;;18.16;35.34;100777.50;4175245;28;20033;-45
2021/05/14 06:53:42;;;;;;;1.27;1.00;;;;;;;18.14;35.49;100774.19;4174075;28;20043;-45
2021/05/14 06:55:43;;;;;;;2.88;1.48;;;;;;;18.29;35.22;100784.44;4175016;28;20086;-48
2021/05/14 06:57:43;;;;;;;1.20;1.08;;;;;;;18.26;35.23;100773.91;4174131;28;20029;-46
2021/05/14 06:59:44;;;;;;;2.45;1.40;;;;;;;18.27;34.73;100780.28;4175278;28;20068;-46
2021/05/14 07:01:44;;;;;;;2.28;1.67;;;;;;;18.29;34.72;100780.81;4175147;28;20033;-48
2021/05/14 07:03:45;;;;;;;2.58;1.70;;;;;;;18.20;34.69;100777.78;4170999;28;20483;-46
2021/05/14 07:05:45;;;;;;;1.80;1.70;;;;;;;18.27;34.43;100781.09;4175036;28;20033;-47
2021/05/14 07:07:46;;;;;;;2.10;1.67;;;;;;;18.18;34.77;100780.84;4175989;28;20028;-47
2021/05/14 07:09:46;;;;;;;2.33;1.98;;;;;;;18.24;34.52;100780.84;4174045;28;20063;-45
2021/05/14 07:11:47;;;;;;;2.33;1.50;;;;;;;18.25;34.81;100794.41;4170269;28;20064;-48
2021/05/14 07:13:47;;;;;;;1.92;1.60;;;;;;;18.26;34.90;100781.38;4174966;28;20037;-48
2021/05/14 07:15:48;;;;;;;3.03;1.52;;;;;;;18.20;34.71;100786.09;4170687;28;20407;-47
2021/05/14 07:17:49;;;;;;;2.75;1.55;;;;;;;18.18;35.04;100783.63;4173791;28;20037;-46
2021/05/14 07:19:49;;;;;;;4.25;1.55;;;;;;;18.18;34.64;100786.38;4174735;28;20714;-45
2021/05/14 07:21:50;;;;;;;4.55;1.40;;;;;;;18.18;35.49;100778.06;4172930;28;20491;-47
2021/05/14 07:23:50;;;;;;;8.02;2.00;;;;;;;18.07;37.06;100781.09;4174569;28;20048;-44
2021/05/14 07:25:51;;;;;;;6.82;2.05;;;;;;;18.16;36.85;100784.97;4172941;28;20037;-48
2021/05/14 07:27:51;;;;;;;8.52;2.60;;;;;;;18.29;37.87;100783.59;4172351;28;20033;-45
2021/05/14 07:29:52;;;;;;;8.75;2.20;;;;;;;18.34;37.84;100783.66;4173894;28;20037;-47
2021/05/14 07:31:52;;;;;;;7.47;1.88;;;;;;;18.37;38.12;100783.09;4171859;28;20056;-45
2021/05/14 07:33:53;;;;;;;14.65;2.65;;;;;;;18.34;38.26;100791.97;4174192;28;20094;-43
2021/05/14 07:35:54;;;;;;;13.50;2.63;;;;;;;18.28;38.98;100788.31;4173468;28;20295;-46
2021/05/14 07:37:54;;;;;;;10.05;2.38;;;;;;;18.41;40.01;100786.97;4172134;28;20090;-47
2021/05/14 07:39:56;;;;;;;20.38;3.20;;;;;;;18.46;40.34;100795.28;4172163;28;20469;-51
2021/05/14 07:41:56;;;;;;;9.70;2.80;;;;;;;18.44;38.98;100791.13;4174425;28;20029;-49
2021/05/14 07:43:57;;;;;;;16.52;2.65;;;;;;;18.43;38.94;100793.06;4172919;28;20419;-48
2021/05/14 07:45:57;;;;;;;11.05;3.40;;;;;;;18.50;40.69;100799.16;4174474;28;20094;-47
2021/05/14 07:47:57;;;;;;;11.48;3.05;;;;;;;18.58;41.27;100800.53;4164403;28;20392;-49
2021/05/14 07:49:58;;;;;;;10.15;3.47;;;;;;;18.54;41.51;100791.13;4174001;28;20135;-50
2021/05/14 07:51:59;;;;;;;11.52;2.72;;;;;;;18.64;41.51;100807.72;4172810;28;20036;-49
2021/05/14 07:53:59;;;;;;;9.95;2.28;;;;;;;18.61;41.62;100791.66;4174132;28;20021;-50
2021/05/14 07:56:00;;;;;;;9.40;2.45;;;;;;;18.68;41.25;100799.72;4157064;28;20041;-49
2021/05/14 07:58:01;;;;;;;13.40;2.80;;;;;;;18.72;40.82;100803.56;4173932;28;20029;-48
2021/05/14 08:00:03;;;;;;;5.38;2.10;;;;;;;18.75;40.47;100810.50;4172113;28;20037;-47
2021/05/14 08:02:04;;;;;;;8.10;2.13;;;;;;;18.75;40.29;100803.00;4173293;28;20093;-46
2021/05/14 08:04:07;;;;;;;7.65;1.80;;;;;;;18.72;40.26;100798.03;4169443;28;20144;-44
2021/05/14 08:06:08;;;;;;;6.00;1.95;;;;;;;18.80;40.04;100808.56;4170233;28;20033;-51
2021/05/14 08:08:10;;;;;;;5.40;1.67;;;;;;;18.79;40.17;100812.44;4170030;28;20033;-47
2021/05/14 08:10:10;;;;;;;3.75;2.13;;;;;;;18.50;39.77;100804.69;4172934;28;20083;-47
2021/05/14 08:12:11;;;;;;;6.15;2.00;;;;;;;18.62;40.16;100809.16;4167565;28;20502;-50
2021/05/14 08:14:12;;;;;;;3.17;1.38;;;;;;;18.58;39.85;100802.47;4171567;28;20094;-51
2021/05/14 08:16:12;;;;;;;4.20;1.70;;;;;;;18.66;39.61;100810.22;4170100;28;20036;-51
2021/05/14 08:18:13;;;;;;;7.13;1.60;;;;;;;18.64;39.88;100809.69;4172649;28;20041;-49
2021/05/14 08:20:13;;;;;;;4.45;1.40;;;;;;;18.65;39.60;100801.09;4173872;28;20445;-49
2021/05/14 08:22:15;;;;;;;5.85;1.52;;;;;;;18.43;39.84;100776.44;4172045;28;20036;-48
2021/05/14 08:24:15;;;;;;;5.65;1.40;;;;;;;18.66;39.72;100804.69;4173054;28;20114;-46
2021/05/14 08:26:16;;;;;;;4.78;1.48;;;;;;;18.74;39.37;100808.84;4172531;28;20033;-45
2021/05/14 08:28:17;;;;;;;7.45;2.00;;;;;;;18.67;39.67;100812.72;4171600;28;20071;-51
2021/05/14 08:30:18;;;;;;;4.18;1.55;;;;;;;18.60;39.82;100811.34;4174547;28;20071;-46
2021/05/14 08:32:18;;;;;;;6.13;1.52;;;;;;;18.72;39.76;100814.66;4173978;28;20037;-53
2021/05/14 08:34:19;;;;;;;4.68;1.70;;;;;;;18.68;39.79;100810.81;4175717;28;20025;-47
2021/05/14 08:36:20;;;;;;;5.78;1.65;;;;;;;18.80;39.46;100818.81;4174010;28;20037;-46
2021/05/14 08:38:21;;;;;;;4.88;1.73;;;;;;;18.75;39.49;100814.09;4176604;28;20037;-47
2021/05/14 08:40:21;;;;;;;3.42;1.75;;;;;;;18.77;39.64;100823.00;4174796;28;20411;-47
2021/05/14 08:42:22;;;;;;;2.25;1.33;;;;;;;18.82;38.76;100822.97;4175120;28;20037;-46
2021/05/14 08:44:22;;;;;;;3.05;1.30;;;;;;;18.79;39.10;100819.94;4174760;28;20422;-47
2021/05/14 08:46:24;;;;;;;2.15;1.80;;;;;;;18.81;38.83;100824.06;4173933;28;20040;-47
2021/05/14 08:48:26;;;;;;;4.88;1.70;;;;;;;18.75;38.24;100810.50;4172680;28;20037;-45
2021/05/14 08:50:28;;;;;;;6.43;1.70;;;;;;;18.79;37.96;100825.50;4172412;28;20030;-43
2021/05/14 08:52:30;;;;;;;5.45;1.55;;;;;;;18.77;38.91;100827.69;4172938;28;20039;-44
2021/05/14 08:54:31;;;;;;;3.30;1.60;;;;;;;18.75;37.88;100821.59;4174767;28;20040;-44
2021/05/14 08:56:32;;;;;;;2.75;1.50;;;;;;;18.75;38.44;100824.38;4172565;28;20040;-48
2021/05/14 08:58:33;;;;;;;3.13;1.58;;;;;;;18.78;38.67;100826.59;4172830;28;20474;-45
2021/05/14 09:00:33;;;;;;;4.07;1.95;;;;;;;18.77;38.65;100834.09;4175781;28;20035;-45
2021/05/14 09:02:35;;;;;;;3.40;1.85;;;;;;;18.80;38.69;100832.69;4175505;28;20141;-49
2021/05/14 09:04:35;;;;;;;3.47;1.60;;;;;;;18.75;37.53;100825.19;4172551;28;20048;-46
2021/05/14 09:06:40;;;;;;;3.75;2.00;;;;;;;18.79;38.13;100829.09;4175885;28;20039;-44
2021/05/14 09:08:55;;;;;;;2.97;1.57;;;;;;;18.82;38.02;100833.25;4172832;28;20054;-46
2021/05/14 09:10:55;;;;;;;1.63;1.42;;;;;;;18.82;38.56;100831.28;4170214;28;20368;-48
2021/05/14 09:12:57;;;;;;;4.40;1.52;;;;;;;18.81;37.61;100828.81;4173596;28;20126;-47
2021/05/14 09:14:57;;;;;;;3.53;1.63;;;;;;;18.86;38.45;100832.41;4174458;28;20056;-45
2021/05/14 09:17:06;;;;;;;2.35;1.83;;;;;;;18.81;38.47;100834.34;4174073;28;20048;-48
2021/05/14 09:19:08;;;;;;;2.30;2.10;;;;;;;18.85;38.05;100838.25;4174702;28;20045;-44
2021/05/14 09:21:08;;;;;;;5.13;1.67;;;;;;;18.85;38.01;100825.19;4166781;28;20759;-49
2021/05/14 09:23:36;;;;;;;3.17;1.90;;;;;;;18.89;37.87;100837.41;4175747;28;20036;-52
2021/05/14 09:25:39;;;;;;;6.93;2.38;;;;;;;18.85;37.26;100821.59;4177496;28;20033;-47